sensor_id;sensor_type;location;lat;lon;timestamp;pressure;altitude;pressure_sealevel;temperature;humidity
58385;BME280;44185;47.844;8.966;2023-12-04T00:00:36;96294.41;;;-9.15;100.00
58385;BME280;44185;47.844;8.966;2023-12-04T00:03:03;96284.03;;;-8.99;100.00
58385;BME280;44185;47.844;8.966;2023-12-04T00:05:28;96289.94;;;-8.89;100.00
58385;BME280;44185;47.844;8.966;2023-12-04T00:07:54;96293.63;;;-9.26;100.00
58385;BME280;44185;47.844;8.966;2023-12-04T00:10:19;96284.44;;;-9.58;100.00
58385;BME280;44185;47.844;8.966;2023-12-04T00:12:45;96280.09;;;-9.45;100.00
58385;BME280;44185;47.844;8.966;2023-12-04T00:15:10;96276.75;;;-9.62;100.00
58385;BME280;44185;47.844;8.966;2023-12-04T00:17:36;96280.13;;;-9.52;100.00
58385;BME280;44185;47.844;8.966;2023-12-04T00:20:04;96269.59;;;-9.09;100.00
58385;BME280;44185;47.844;8.966;2023-12-04T00:22:30;96271.31;;;-9.08;100.00
58385;BME280;44185;47.844;8.966;2023-12-04T00:24:55;96275.66;;;-9.20;100.00
58385;BME280;44185;47.844;8.966;2023-12-04T00:27:21;96267.91;;;-9.10;100.00
58385;BME280;44185;47.844;8.966;2023-12-04T00:29:46;96267.00;;;-9.05;100.00
58385;BME280;44185;47.844;8.966;2023-12-04T00:32:11;96271.38;;;-9.19;100.00
58385;BME280;44185;47.844;8.966;2023-12-04T00:34:37;96244.91;;;-9.26;100.00
58385;BME280;44185;47.844;8.966;2023-12-04T00:37:04;96240.53;;;-9.05;100.00
58385;BME280;44185;47.844;8.966;2023-12-04T00:39:30;96238.88;;;-9.14;100.00
58385;BME280;44185;47.844;8.966;2023-12-04T00:41:55;96244.88;;;-9.18;100.00
58385;BME280;44185;47.844;8.966;2023-12-04T00:44:21;96241.50;;;-9.22;100.00
58385;BME280;44185;47.844;8.966;2023-12-04T00:46:46;96235.59;;;-9.37;100.00
58385;BME280;44185;47.844;8.966;2023-12-04T00:49:12;96223.59;;;-9.31;100.00
58385;BME280;44185;47.844;8.966;2023-12-04T00:51:37;96232.09;;;-9.21;100.00
58385;BME280;44185;47.844;8.966;2023-12-04T00:54:04;96234.63;;;-9.18;100.00
58385;BME280;44185;47.844;8.966;2023-12-04T00:56:30;96225.97;;;-9.03;100.00
58385;BME280;44185;47.844;8.966;2023-12-04T00:58:55;96233.69;;;-9.06;100.00
58385;BME280;44185;47.844;8.966;2023-12-04T01:01:21;96227.59;;;-8.96;100.00
58385;BME280;44185;47.844;8.966;2023-12-04T01:03:46;96228.47;;;-8.95;100.00
58385;BME280;44185;47.844;8.966;2023-12-04T01:06:20;96218.25;;;-9.01;100.00
58385;BME280;44185;47.844;8.966;2023-12-04T01:08:45;96220.69;;;-8.84;100.00
58385;BME280;44185;47.844;8.966;2023-12-04T01:11:13;96220.56;;;-8.72;100.00
58385;BME280;44185;47.844;8.966;2023-12-04T01:13:39;96223.88;;;-8.62;100.00
58385;BME280;44185;47.844;8.966;2023-12-04T01:16:05;96220.44;;;-8.59;100.00
58385;BME280;44185;47.844;8.966;2023-12-04T01:18:31;96234.28;;;-8.77;100.00
58385;BME280;44185;47.844;8.966;2023-12-04T01:20:56;96233.56;;;-8.92;100.00
58385;BME280;44185;47.844;8.966;2023-12-04T01:23:22;96225.03;;;-8.96;100.00
58385;BME280;44185;47.844;8.966;2023-12-04T01:25:47;96222.59;;;-9.08;100.00
58385;BME280;44185;47.844;8.966;2023-12-04T01:28:14;96234.44;;;-8.96;100.00
58385;BME280;44185;47.844;8.966;2023-12-04T01:30:40;96231.03;;;-8.95;100.00
58385;BME280;44185;47.844;8.966;2023-12-04T01:33:05;96225.03;;;-8.96;100.00
58385;BME280;44185;47.844;8.966;2023-12-04T01:35:31;96214.81;;;-8.99;100.00
58385;BME280;44185;47.844;8.966;2023-12-04T01:37:56;96217.22;;;-8.80;100.00
58385;BME280;44185;47.844;8.966;2023-12-04T01:40:21;96217.75;;;-8.51;100.00
58385;BME280;44185;47.844;8.966;2023-12-04T01:42:47;96219.44;;;-8.47;100.00
58385;BME280;44185;47.844;8.966;2023-12-04T01:45:14;96217.59;;;-8.34;100.00
58385;BME280;44185;47.844;8.966;2023-12-04T01:47:39;96214.19;;;-8.38;100.00
58385;BME280;44185;47.844;8.966;2023-12-04T01:50:06;96217.34;;;-8.13;100.00
58385;BME280;44185;47.844;8.966;2023-12-04T01:52:32;96212.25;;;-8.17;100.00
58385;BME280;44185;47.844;8.966;2023-12-04T01:54:58;96202.97;;;-8.29;100.00
58385;BME280;44185;47.844;8.966;2023-12-04T01:57:24;96207.63;;;-8.62;100.00
58385;BME280;44185;47.844;8.966;2023-12-04T01:59:49;96198.97;;;-8.55;100.00
58385;BME280;44185;47.844;8.966;2023-12-04T02:02:16;96196.34;;;-8.52;100.00
58385;BME280;44185;47.844;8.966;2023-12-04T02:04:42;96190.34;;;-8.48;100.00
58385;BME280;44185;47.844;8.966;2023-12-04T02:07:08;96187.84;;;-8.54;100.00
58385;BME280;44185;47.844;8.966;2023-12-04T02:09:33;96193.19;;;-8.73;100.00
58385;BME280;44185;47.844;8.966;2023-12-04T02:11:59;96194.91;;;-8.72;100.00
58385;BME280;44185;47.844;8.966;2023-12-04T02:14:24;96191.22;;;-8.52;100.00
58385;BME280;44185;47.844;8.966;2023-12-04T02:16:50;96195.66;;;-8.62;100.00
58385;BME280;44185;47.844;8.966;2023-12-04T02:19:18;96184.34;;;-8.48;100.00
58385;BME280;44185;47.844;8.966;2023-12-04T02:21:45;96170.75;;;-8.55;100.00
58385;BME280;44185;47.844;8.966;2023-12-04T02:24:11;96167.28;;;-8.51;100.00
58385;BME280;44185;47.844;8.966;2023-12-04T02:26:44;96173.41;;;-8.61;100.00
58385;BME280;44185;47.844;8.966;2023-12-04T02:29:15;96161.34;;;-8.56;100.00
58385;BME280;44185;47.844;8.966;2023-12-04T02:31:44;96163.66;;;-8.34;100.00
58385;BME280;44185;47.844;8.966;2023-12-04T02:34:10;96166.34;;;-8.45;100.00
58385;BME280;44185;47.844;8.966;2023-12-04T02:36:39;96169.59;;;-8.29;100.00
58385;BME280;44185;47.844;8.966;2023-12-04T02:39:06;96165.53;;;-8.49;100.00
58385;BME280;44185;47.844;8.966;2023-12-04T02:41:33;96172.31;;;-8.43;100.00
58385;BME280;44185;47.844;8.966;2023-12-04T02:43:58;96158.63;;;-8.42;100.00
58385;BME280;44185;47.844;8.966;2023-12-04T02:46:23;96153.50;;;-8.43;100.00
58385;BME280;44185;47.844;8.966;2023-12-04T02:48:49;96146.84;;;-8.58;100.00
58385;BME280;44185;47.844;8.966;2023-12-04T02:51:15;96143.19;;;-8.40;100.00
58385;BME280;44185;47.844;8.966;2023-12-04T02:53:40;96147.09;;;-8.79;100.00
58385;BME280;44185;47.844;8.966;2023-12-04T02:56:06;96150.22;;;-8.55;100.00
58385;BME280;44185;47.844;8.966;2023-12-04T02:58:33;96148.59;;;-8.61;100.00
58385;BME280;44185;47.844;8.966;2023-12-04T03:00:58;96148.53;;;-8.57;100.00
58385;BME280;44185;47.844;8.966;2023-12-04T03:03:24;96130.53;;;-8.56;100.00
58385;BME280;44185;47.844;8.966;2023-12-04T03:05:49;96133.66;;;-8.29;100.00
58385;BME280;44185;47.844;8.966;2023-12-04T03:08:15;96134.38;;;-8.19;100.00
58385;BME280;44185;47.844;8.966;2023-12-04T03:10:40;96121.47;;;-8.14;100.00
58385;BME280;44185;47.844;8.966;2023-12-04T03:13:06;96125.88;;;-8.24;100.00
58385;BME280;44185;47.844;8.966;2023-12-04T03:15:32;96125.06;;;-8.28;100.00
58385;BME280;44185;47.844;8.966;2023-12-04T03:17:59;96125.88;;;-8.24;100.00
58385;BME280;44185;47.844;8.966;2023-12-04T03:20:25;96127.59;;;-8.24;100.00
58385;BME280;44185;47.844;8.966;2023-12-04T03:22:50;96118.25;;;-8.29;100.00
58385;BME280;44185;47.844;8.966;2023-12-04T03:25:16;96120.97;;;-8.41;100.00
58385;BME280;44185;47.844;8.966;2023-12-04T03:27:41;96109.78;;;-8.37;100.00
58385;BME280;44185;47.844;8.966;2023-12-04T03:30:07;96097.13;;;-8.51;100.00
58385;BME280;44185;47.844;8.966;2023-12-04T03:32:34;96109.16;;;-8.55;100.00
58385;BME280;44185;47.844;8.966;2023-12-04T03:35:00;96105.50;;;-8.38;100.00
58385;BME280;44185;47.844;8.966;2023-12-04T03:37:25;96108.72;;;-8.20;100.00
58385;BME280;44185;47.844;8.966;2023-12-04T03:39:51;96107.66;;;-8.07;100.00
58385;BME280;44185;47.844;8.966;2023-12-04T03:42:16;96116.19;;;-8.03;100.00
58385;BME280;44185;47.844;8.966;2023-12-04T03:44:41;96114.38;;;-7.95;100.00
58385;BME280;44185;47.844;8.966;2023-12-04T03:47:07;96109.63;;;-8.23;100.00
58385;BME280;44185;47.844;8.966;2023-12-04T03:49:34;96109.41;;;-8.09;100.00
58385;BME280;44185;47.844;8.966;2023-12-04T03:52:00;96101.44;;;-7.88;100.00
58385;BME280;44185;47.844;8.966;2023-12-04T03:54:25;96101.22;;;-7.73;100.00
58385;BME280;44185;47.844;8.966;2023-12-04T03:56:50;96102.03;;;-7.72;100.00
58385;BME280;44185;47.844;8.966;2023-12-04T03:59:16;96100.47;;;-7.81;100.00
58385;BME280;44185;47.844;8.966;2023-12-04T04:01:41;96097.66;;;-7.65;100.00
58385;BME280;44185;47.844;8.966;2023-12-04T04:04:07;96094.13;;;-7.58;100.00
58385;BME280;44185;47.844;8.966;2023-12-04T04:06:34;96093.47;;;-7.71;100.00
58385;BME280;44185;47.844;8.966;2023-12-04T04:09:00;96085.94;;;-7.84;100.00
58385;BME280;44185;47.844;8.966;2023-12-04T04:11:25;96078.47;;;-8.01;100.00
58385;BME280;44185;47.844;8.966;2023-12-04T04:13:50;96080.50;;;-8.20;100.00
58385;BME280;44185;47.844;8.966;2023-12-04T04:16:16;96073.72;;;-8.28;100.00
58385;BME280;44185;47.844;8.966;2023-12-04T04:18:41;96075.28;;;-8.17;100.00
58385;BME280;44185;47.844;8.966;2023-12-04T04:21:07;96070.25;;;-8.25;100.00
58385;BME280;44185;47.844;8.966;2023-12-04T04:23:34;96084.72;;;-8.19;100.00
58385;BME280;44185;47.844;8.966;2023-12-04T04:26:00;96079.47;;;-8.10;100.00
58385;BME280;44185;47.844;8.966;2023-12-04T04:28:25;96073.31;;;-7.98;100.00
58385;BME280;44185;47.844;8.966;2023-12-04T04:30:50;96065.72;;;-8.06;100.00
58385;BME280;44185;47.844;8.966;2023-12-04T04:33:16;96063.06;;;-7.99;100.00
58385;BME280;44185;47.844;8.966;2023-12-04T04:35:41;96058.75;;;-7.97;100.00
58385;BME280;44185;47.844;8.966;2023-12-04T04:38:07;96057.19;;;-8.08;100.00
58385;BME280;44185;47.844;8.966;2023-12-04T04:40:34;96051.91;;;-7.97;100.00
58385;BME280;44185;47.844;8.966;2023-12-04T04:43:00;96051.91;;;-7.98;100.00
58385;BME280;44185;47.844;8.966;2023-12-04T04:45:25;96053.66;;;-7.99;100.00
58385;BME280;44185;47.844;8.966;2023-12-04T04:47:50;96055.25;;;-7.92;100.00
58385;BME280;44185;47.844;8.966;2023-12-04T04:50:16;96057.69;;;-7.84;100.00
58385;BME280;44185;47.844;8.966;2023-12-04T04:52:41;96050.59;;;-7.67;100.00
58385;BME280;44185;47.844;8.966;2023-12-04T04:55:07;96038.34;;;-7.53;100.00
58385;BME280;44185;47.844;8.966;2023-12-04T04:57:34;96040.75;;;-7.43;100.00
58385;BME280;44185;47.844;8.966;2023-12-04T05:00:00;96039.16;;;-7.49;100.00
58385;BME280;44185;47.844;8.966;2023-12-04T05:02:26;96043.44;;;-7.50;100.00
58385;BME280;44185;47.844;8.966;2023-12-04T05:04:51;96042.50;;;-7.45;100.00
58385;BME280;44185;47.844;8.966;2023-12-04T05:07:16;96038.97;;;-7.38;100.00
58385;BME280;44185;47.844;8.966;2023-12-04T05:09:42;96033.19;;;-7.51;100.00
58385;BME280;44185;47.844;8.966;2023-12-04T05:12:07;96021.78;;;-7.38;100.00
58385;BME280;44185;47.844;8.966;2023-12-04T05:14:34;96023.44;;;-7.35;100.00
58385;BME280;44185;47.844;8.966;2023-12-04T05:17:00;96021.38;;;-7.62;100.00
58385;BME280;44185;47.844;8.966;2023-12-04T05:19:25;96027.28;;;-7.58;100.00
58385;BME280;44185;47.844;8.966;2023-12-04T05:21:50;96027.06;;;-7.44;100.00
58385;BME280;44185;47.844;8.966;2023-12-04T05:24:16;96023.38;;;-7.81;100.00
58385;BME280;44185;47.844;8.966;2023-12-04T05:26:41;96026.50;;;-7.62;100.00
58385;BME280;44185;47.844;8.966;2023-12-04T05:29:07;96020.44;;;-7.57;100.00
58385;BME280;44185;47.844;8.966;2023-12-04T05:31:34;96026.47;;;-7.60;100.00
58385;BME280;44185;47.844;8.966;2023-12-04T05:34:00;96018.44;;;-7.41;100.00
58385;BME280;44185;47.844;8.966;2023-12-04T05:36:25;96023.53;;;-7.40;100.00
58385;BME280;44185;47.844;8.966;2023-12-04T05:38:50;96018.59;;;-7.51;100.00
58385;BME280;44185;47.844;8.966;2023-12-04T05:41:16;96015.81;;;-7.40;100.00
58385;BME280;44185;47.844;8.966;2023-12-04T05:43:41;96008.97;;;-7.39;100.00
58385;BME280;44185;47.844;8.966;2023-12-04T05:46:07;95992.13;;;-7.56;100.00
58385;BME280;44185;47.844;8.966;2023-12-04T05:48:34;96006.59;;;-7.50;100.00
58385;BME280;44185;47.844;8.966;2023-12-04T05:51:00;96004.78;;;-7.43;100.00
58385;BME280;44185;47.844;8.966;2023-12-04T05:53:25;96005.34;;;-7.29;100.00
58385;BME280;44185;47.844;8.966;2023-12-04T05:55:50;95993.28;;;-7.25;100.00
58385;BME280;44185;47.844;8.966;2023-12-04T05:58:16;95998.91;;;-7.06;100.00
58385;BME280;44185;47.844;8.966;2023-12-04T06:00:41;95998.50;;;-7.28;100.00
58385;BME280;44185;47.844;8.966;2023-12-04T06:03:07;95995.81;;;-7.22;100.00
58385;BME280;44185;47.844;8.966;2023-12-04T06:05:34;95990.81;;;-7.31;100.00
58385;BME280;44185;47.844;8.966;2023-12-04T06:08:00;95988.16;;;-7.27;100.00
58385;BME280;44185;47.844;8.966;2023-12-04T06:10:25;95989.25;;;-7.39;100.00
58385;BME280;44185;47.844;8.966;2023-12-04T06:12:50;95991.06;;;-7.45;100.00
58385;BME280;44185;47.844;8.966;2023-12-04T06:15:16;95987.97;;;-7.63;100.00
58385;BME280;44185;47.844;8.966;2023-12-04T06:17:42;95979.06;;;-7.45;100.00
58385;BME280;44185;47.844;8.966;2023-12-04T06:20:08;95971.97;;;-7.30;100.00
58385;BME280;44185;47.844;8.966;2023-12-04T06:22:36;95968.44;;;-7.26;100.00
58385;BME280;44185;47.844;8.966;2023-12-04T06:25:02;95967.63;;;-7.28;100.00
58385;BME280;44185;47.844;8.966;2023-12-04T06:27:27;95960.72;;;-7.24;100.00
58385;BME280;44185;47.844;8.966;2023-12-04T06:29:53;95965.22;;;-7.36;100.00
58385;BME280;44185;47.844;8.966;2023-12-04T06:32:19;95961.63;;;-7.29;100.00
58385;BME280;44185;47.844;8.966;2023-12-04T06:34:45;95958.91;;;-7.21;100.00
58385;BME280;44185;47.844;8.966;2023-12-04T06:37:12;95957.31;;;-7.27;100.00
58385;BME280;44185;47.844;8.966;2023-12-04T06:39:40;95954.53;;;-7.16;100.00
58385;BME280;44185;47.844;8.966;2023-12-04T06:42:06;95944.63;;;-7.36;100.00
58385;BME280;44185;47.844;8.966;2023-12-04T06:44:33;95936.72;;;-7.25;100.00
58385;BME280;44185;47.844;8.966;2023-12-04T06:47:00;95940.19;;;-7.28;100.00
58385;BME280;44185;47.844;8.966;2023-12-04T06:49:28;95923.09;;;-7.30;100.00
58385;BME280;44185;47.844;8.966;2023-12-04T06:51:55;95933.91;;;-7.59;100.00
58385;BME280;44185;47.844;8.966;2023-12-04T06:54:20;95923.16;;;-7.33;100.00
58385;BME280;44185;47.844;8.966;2023-12-04T06:56:47;95929.84;;;-7.24;100.00
58385;BME280;44185;47.844;8.966;2023-12-04T06:59:12;95925.38;;;-7.16;100.00
58385;BME280;44185;47.844;8.966;2023-12-04T07:01:38;95924.50;;;-7.15;100.00
58385;BME280;44185;47.844;8.966;2023-12-04T07:04:03;95901.63;;;-7.29;100.00
58385;BME280;44185;47.844;8.966;2023-12-04T07:06:29;95876.50;;;-7.57;100.00
58385;BME280;44185;47.844;8.966;2023-12-04T07:08:54;95916.09;;;-7.68;100.00
58385;BME280;44185;47.844;8.966;2023-12-04T07:11:20;95938.47;;;-7.75;100.00
58385;BME280;44185;47.844;8.966;2023-12-04T07:13:46;95947.69;;;-7.63;100.00
58385;BME280;44185;47.844;8.966;2023-12-04T07:16:12;95949.19;;;-7.51;100.00
58385;BME280;44185;47.844;8.966;2023-12-04T07:18:37;95949.56;;;-7.25;100.00
58385;BME280;44185;47.844;8.966;2023-12-04T07:21:03;95960.41;;;-7.09;100.00
58385;BME280;44185;47.844;8.966;2023-12-04T07:23:30;95950.34;;;-7.20;100.00
58385;BME280;44185;47.844;8.966;2023-12-04T07:25:55;95953.59;;;-7.11;100.00
58385;BME280;44185;47.844;8.966;2023-12-04T07:28:20;95950.81;;;-7.02;100.00
58385;BME280;44185;47.844;8.966;2023-12-04T07:30:47;95938.94;;;-7.08;100.00
58385;BME280;44185;47.844;8.966;2023-12-04T07:33:13;95951.63;;;-7.00;100.00
58385;BME280;44185;47.844;8.966;2023-12-04T07:35:38;95917.22;;;-6.94;100.00
58385;BME280;44185;47.844;8.966;2023-12-04T07:38:04;95923.56;;;-7.11;100.00
58385;BME280;44185;47.844;8.966;2023-12-04T07:40:30;95890.28;;;-7.19;100.00
58385;BME280;44185;47.844;8.966;2023-12-04T07:42:55;95886.97;;;-7.24;100.00
58385;BME280;44185;47.844;8.966;2023-12-04T07:45:20;95893.00;;;-7.27;100.00
58385;BME280;44185;47.844;8.966;2023-12-04T07:47:47;95880.53;;;-7.44;100.00
58385;BME280;44185;47.844;8.966;2023-12-04T07:50:13;95889.84;;;-7.38;100.00
58385;BME280;44185;47.844;8.966;2023-12-04T07:52:38;95892.47;;;-7.43;100.00
58385;BME280;44185;47.844;8.966;2023-12-04T07:55:04;95896.38;;;-7.23;100.00
58385;BME280;44185;47.844;8.966;2023-12-04T07:57:30;95887.06;;;-7.29;100.00
58385;BME280;44185;47.844;8.966;2023-12-04T07:59:55;95887.38;;;-7.03;100.00
58385;BME280;44185;47.844;8.966;2023-12-04T08:02:21;95885.47;;;-6.93;100.00
58385;BME280;44185;47.844;8.966;2023-12-04T08:04:47;95891.94;;;-6.75;100.00
58385;BME280;44185;47.844;8.966;2023-12-04T08:07:13;95893.31;;;-6.60;100.00
58385;BME280;44185;47.844;8.966;2023-12-04T08:09:39;95888.97;;;-6.57;100.00
58385;BME280;44185;47.844;8.966;2023-12-04T08:12:05;95874.22;;;-6.51;100.00
58385;BME280;44185;47.844;8.966;2023-12-04T08:14:30;95883.53;;;-6.45;100.00
58385;BME280;44185;47.844;8.966;2023-12-04T08:16:56;95884.88;;;-6.30;100.00
58385;BME280;44185;47.844;8.966;2023-12-04T08:19:21;95873.66;;;-6.27;100.00
58385;BME280;44185;47.844;8.966;2023-12-04T08:21:48;95886.53;;;-6.27;100.00
58385;BME280;44185;47.844;8.966;2023-12-04T08:24:14;95875.25;;;-6.21;100.00
58385;BME280;44185;47.844;8.966;2023-12-04T08:26:39;95874.78;;;-6.04;100.00
58385;BME280;44185;47.844;8.966;2023-12-04T08:29:04;95853.25;;;-6.35;100.00
58385;BME280;44185;47.844;8.966;2023-12-04T08:31:30;95860.25;;;-6.40;100.00
58385;BME280;44185;47.844;8.966;2023-12-04T08:33:55;95862.47;;;-6.63;100.00
58385;BME280;44185;47.844;8.966;2023-12-04T08:36:21;95869.81;;;-6.84;100.00
58385;BME280;44185;47.844;8.966;2023-12-04T08:38:48;95868.63;;;-7.08;100.00
58385;BME280;44185;47.844;8.966;2023-12-04T08:41:13;95861.59;;;-7.00;100.00
58385;BME280;44185;47.844;8.966;2023-12-04T08:43:39;95863.75;;;-6.81;100.00
58385;BME280;44185;47.844;8.966;2023-12-04T08:46:04;95875.59;;;-6.74;100.00
58385;BME280;44185;47.844;8.966;2023-12-04T08:48:30;95859.06;;;-6.63;100.00
58385;BME280;44185;47.844;8.966;2023-12-04T08:50:55;95861.31;;;-6.49;100.00
58385;BME280;44185;47.844;8.966;2023-12-04T08:53:21;95862.03;;;-6.42;100.00
58385;BME280;44185;47.844;8.966;2023-12-04T08:55:48;95869.75;;;-6.44;100.00
58385;BME280;44185;47.844;8.966;2023-12-04T08:58:13;95864.78;;;-6.15;100.00
58385;BME280;44185;47.844;8.966;2023-12-04T09:00:39;95839.25;;;-6.25;100.00
58385;BME280;44185;47.844;8.966;2023-12-04T09:03:04;95871.56;;;-6.11;100.00
58385;BME280;44185;47.844;8.966;2023-12-04T09:05:30;95892.81;;;-6.04;100.00
58385;BME280;44185;47.844;8.966;2023-12-04T09:07:55;95905.81;;;-5.74;100.00
58385;BME280;44185;47.844;8.966;2023-12-04T09:10:21;95904.94;;;-5.74;100.00
58385;BME280;44185;47.844;8.966;2023-12-04T09:12:48;95895.19;;;-5.96;100.00
58385;BME280;44185;47.844;8.966;2023-12-04T09:15:13;95895.38;;;-6.03;100.00
58385;BME280;44185;47.844;8.966;2023-12-04T09:17:39;95898.50;;;-5.91;100.00
58385;BME280;44185;47.844;8.966;2023-12-04T09:20:05;95885.09;;;-5.71;100.00
58385;BME280;44185;47.844;8.966;2023-12-04T09:22:30;95892.50;;;-5.58;100.00
58385;BME280;44185;47.844;8.966;2023-12-04T09:24:56;95902.00;;;-5.60;100.00
58385;BME280;44185;47.844;8.966;2023-12-04T09:27:22;95885.44;;;-5.51;100.00
58385;BME280;44185;47.844;8.966;2023-12-04T09:29:49;95892.94;;;-5.42;100.00
58385;BME280;44185;47.844;8.966;2023-12-04T09:32:15;95879.09;;;-5.39;100.00
58385;BME280;44185;47.844;8.966;2023-12-04T09:34:40;95875.03;;;-5.48;100.00
58385;BME280;44185;47.844;8.966;2023-12-04T09:37:06;95869.50;;;-5.34;100.00
58385;BME280;44185;47.844;8.966;2023-12-04T09:39:31;95861.53;;;-5.26;100.00
58385;BME280;44185;47.844;8.966;2023-12-04T09:41:58;95858.19;;;-5.30;100.00
58385;BME280;44185;47.844;8.966;2023-12-04T09:44:27;95859.41;;;-5.42;100.00
58385;BME280;44185;47.844;8.966;2023-12-04T09:46:55;95878.56;;;-5.20;100.00
58385;BME280;44185;47.844;8.966;2023-12-04T09:49:21;95873.84;;;-5.06;100.00
58385;BME280;44185;47.844;8.966;2023-12-04T09:51:47;95880.97;;;-4.85;100.00
58385;BME280;44185;47.844;8.966;2023-12-04T09:54:15;95877.06;;;-4.99;100.00
58385;BME280;44185;47.844;8.966;2023-12-04T09:56:42;95868.22;;;-4.90;100.00
58385;BME280;44185;47.844;8.966;2023-12-04T09:59:09;95866.09;;;-4.77;100.00
58385;BME280;44185;47.844;8.966;2023-12-04T10:01:39;95860.31;;;-4.84;100.00
58385;BME280;44185;47.844;8.966;2023-12-04T10:04:07;95850.13;;;-4.88;100.00
58385;BME280;44185;47.844;8.966;2023-12-04T10:06:33;95851.06;;;-5.21;100.00
58385;BME280;44185;47.844;8.966;2023-12-04T10:08:59;95847.00;;;-5.00;100.00
58385;BME280;44185;47.844;8.966;2023-12-04T10:11:24;95848.06;;;-4.50;100.00
58385;BME280;44185;47.844;8.966;2023-12-04T10:13:50;95824.53;;;-4.67;100.00
58385;BME280;44185;47.844;8.966;2023-12-04T10:16:31;95844.25;;;-4.66;100.00
58385;BME280;44185;47.844;8.966;2023-12-04T10:18:57;95814.53;;;-4.78;100.00
58385;BME280;44185;47.844;8.966;2023-12-04T10:21:31;95819.81;;;-4.54;100.00
58385;BME280;44185;47.844;8.966;2023-12-04T10:23:57;95804.22;;;-5.07;100.00
58385;BME280;44185;47.844;8.966;2023-12-04T10:26:22;95817.22;;;-4.54;100.00
58385;BME280;44185;47.844;8.966;2023-12-04T10:28:58;95798.47;;;-4.34;100.00
58385;BME280;44185;47.844;8.966;2023-12-04T10:31:24;95791.25;;;-4.24;100.00
58385;BME280;44185;47.844;8.966;2023-12-04T10:33:49;95779.75;;;-4.41;100.00
58385;BME280;44185;47.844;8.966;2023-12-04T10:36:15;95795.16;;;-4.12;100.00
58385;BME280;44185;47.844;8.966;2023-12-04T10:38:42;95787.56;;;-3.91;100.00
58385;BME280;44185;47.844;8.966;2023-12-04T10:41:12;95788.41;;;-3.91;100.00
58385;BME280;44185;47.844;8.966;2023-12-04T10:43:46;95791.13;;;-3.95;99.00
58385;BME280;44185;47.844;8.966;2023-12-04T10:46:12;95790.06;;;-3.64;99.94
58385;BME280;44185;47.844;8.966;2023-12-04T10:48:39;95788.44;;;-3.20;97.54
58385;BME280;44185;47.844;8.966;2023-12-04T10:51:05;95798.31;;;-3.30;96.88
58385;BME280;44185;47.844;8.966;2023-12-04T10:53:30;95796.22;;;-2.97;96.43
58385;BME280;44185;47.844;8.966;2023-12-04T10:55:59;95775.03;;;-2.85;94.81
58385;BME280;44185;47.844;8.966;2023-12-04T10:58:26;95771.38;;;-2.58;93.91
58385;BME280;44185;47.844;8.966;2023-12-04T11:00:53;95772.53;;;-2.65;93.15
58385;BME280;44185;47.844;8.966;2023-12-04T11:03:21;95748.19;;;-2.61;92.36
58385;BME280;44185;47.844;8.966;2023-12-04T11:05:55;95745.06;;;-2.70;92.65
58385;BME280;44185;47.844;8.966;2023-12-04T11:08:20;95753.13;;;-2.55;91.97
58385;BME280;44185;47.844;8.966;2023-12-04T11:10:50;95749.47;;;-2.72;93.02
58385;BME280;44185;47.844;8.966;2023-12-04T11:13:23;95741.78;;;-2.96;92.66
58385;BME280;44185;47.844;8.966;2023-12-04T11:15:52;95737.16;;;-2.87;93.13
58385;BME280;44185;47.844;8.966;2023-12-04T11:18:23;95712.72;;;-3.25;93.93
58385;BME280;44185;47.844;8.966;2023-12-04T11:20:52;95714.81;;;-2.69;92.97
58385;BME280;44185;47.844;8.966;2023-12-04T11:23:20;95695.97;;;-3.39;97.18
58385;BME280;44185;47.844;8.966;2023-12-04T11:25:45;95709.50;;;-3.09;98.92
58385;BME280;44185;47.844;8.966;2023-12-04T11:28:12;95700.81;;;-3.29;99.83
58385;BME280;44185;47.844;8.966;2023-12-04T11:30:39;95735.28;;;-3.06;100.00
58385;BME280;44185;47.844;8.966;2023-12-04T11:33:05;95715.03;;;-3.64;100.00
58385;BME280;44185;47.844;8.966;2023-12-04T11:35:30;95723.47;;;-3.36;100.00
58385;BME280;44185;47.844;8.966;2023-12-04T11:38:00;95708.09;;;-3.17;100.00
58385;BME280;44185;47.844;8.966;2023-12-04T11:40:25;95723.50;;;-2.70;99.78
58385;BME280;44185;47.844;8.966;2023-12-04T11:42:52;95718.84;;;-2.62;97.39
58385;BME280;44185;47.844;8.966;2023-12-04T11:45:20;95709.84;;;-2.32;96.39
58385;BME280;44185;47.844;8.966;2023-12-04T11:47:52;95710.97;;;-2.81;94.78
58385;BME280;44185;47.844;8.966;2023-12-04T11:50:19;95725.50;;;-2.35;95.75
58385;BME280;44185;47.844;8.966;2023-12-04T11:52:45;95711.31;;;-2.05;94.68
58385;BME280;44185;47.844;8.966;2023-12-04T11:55:10;95707.13;;;-2.50;94.32
58385;BME280;44185;47.844;8.966;2023-12-04T11:57:37;95716.44;;;-2.25;94.61
58385;BME280;44185;47.844;8.966;2023-12-04T12:00:14;95709.09;;;-2.15;95.05
58385;BME280;44185;47.844;8.966;2023-12-04T12:02:48;95707.53;;;-1.98;94.09
58385;BME280;44185;47.844;8.966;2023-12-04T12:05:16;95712.06;;;-2.03;93.64
58385;BME280;44185;47.844;8.966;2023-12-04T12:07:42;95700.97;;;-1.86;92.96
58385;BME280;44185;47.844;8.966;2023-12-04T12:10:08;95707.34;;;-2.14;92.64
58385;BME280;44185;47.844;8.966;2023-12-04T12:12:34;95695.00;;;-2.28;92.28
58385;BME280;44185;47.844;8.966;2023-12-04T12:15:01;95679.78;;;-2.78;95.17
58385;BME280;44185;47.844;8.966;2023-12-04T12:17:26;95690.00;;;-2.75;96.28
58385;BME280;44185;47.844;8.966;2023-12-04T12:19:52;95676.88;;;-2.70;96.86
58385;BME280;44185;47.844;8.966;2023-12-04T12:22:19;95666.94;;;-3.02;98.37
58385;BME280;44185;47.844;8.966;2023-12-04T12:24:45;95667.69;;;-2.77;99.84
58385;BME280;44185;47.844;8.966;2023-12-04T12:27:10;95655.56;;;-2.56;98.64
58385;BME280;44185;47.844;8.966;2023-12-04T12:29:35;95660.94;;;-2.82;98.64
58385;BME280;44185;47.844;8.966;2023-12-04T12:32:01;95664.75;;;-2.49;98.56
58385;BME280;44185;47.844;8.966;2023-12-04T12:34:26;95658.53;;;-2.44;97.99
58385;BME280;44185;47.844;8.966;2023-12-04T12:36:52;95656.22;;;-2.51;97.87
58385;BME280;44185;47.844;8.966;2023-12-04T12:39:19;95660.31;;;-2.66;99.49
58385;BME280;44185;47.844;8.966;2023-12-04T12:41:47;95663.44;;;-2.38;99.20
58385;BME280;44185;47.844;8.966;2023-12-04T12:44:13;95659.44;;;-2.46;98.86
58385;BME280;44185;47.844;8.966;2023-12-04T12:46:40;95643.22;;;-2.30;98.54